createdAt,value
2023-03-17T00:02:13.926Z,58.5
2023-03-17T00:07:20.016Z,59.5
2023-03-17T00:12:26.148Z,60
2023-03-17T00:17:32.300Z,58.5
2023-03-17T00:22:38.288Z,58
2023-03-17T00:27:44.438Z,55
2023-03-17T00:32:50.543Z,58.5
2023-03-17T00:37:56.590Z,60
2023-03-17T00:43:02.768Z,60.5
2023-03-17T00:48:08.904Z,61
2023-03-17T00:53:20.485Z,60
2023-03-17T00:58:26.610Z,59.5
2023-03-17T01:03:32.707Z,59.5
2023-03-17T01:08:38.830Z,60.5
2023-03-17T01:13:44.869Z,60.5
2023-03-17T01:18:51.038Z,61
2023-03-17T01:23:57.050Z,62
2023-03-17T01:29:03.199Z,60.5
2023-03-17T01:34:09.235Z,58
2023-03-17T01:39:15.338Z,58.5
2023-03-17T01:44:21.474Z,58.5
2023-03-17T01:49:27.545Z,57
2023-03-17T01:54:33.621Z,59
2023-03-17T01:59:39.765Z,58
2023-03-17T02:04:45.874Z,56
2023-03-17T02:09:51.930Z,57.5
2023-03-17T02:14:58.033Z,59
2023-03-17T02:20:04.109Z,58.5
2023-03-17T02:25:10.165Z,56
2023-03-17T02:30:16.346Z,57
2023-03-17T02:35:28.004Z,54.5
2023-03-17T02:40:39.744Z,55
2023-03-17T02:45:45.933Z,55.5
2023-03-17T02:50:51.964Z,56.5
2023-03-17T02:55:58.026Z,54
2023-03-17T03:01:04.225Z,51.5
2023-03-17T03:06:10.209Z,54.5
2023-03-17T03:11:16.318Z,55.5
2023-03-17T03:16:22.415Z,59
2023-03-17T03:21:28.498Z,58
2023-03-17T03:26:34.562Z,57.5
2023-03-17T03:31:40.720Z,56
2023-03-17T03:36:46.771Z,58
2023-03-17T03:41:52.923Z,57
2023-03-17T03:46:58.985Z,55.5
2023-03-17T03:52:05.064Z,54
2023-03-17T03:57:11.138Z,56
2023-03-17T04:02:17.296Z,55.5
2023-03-17T04:07:23.346Z,55.5
2023-03-17T04:12:29.612Z,53
2023-03-17T04:17:35.545Z,55.5
2023-03-17T04:22:47.285Z,57
2023-03-17T04:27:58.998Z,56.5
2023-03-17T04:33:05.182Z,54
2023-03-17T04:38:11.159Z,54.5
2023-03-17T04:43:17.288Z,54.5
2023-03-17T04:48:23.391Z,51.5
2023-03-17T04:53:29.455Z,52
2023-03-17T04:58:35.550Z,54.5
2023-03-17T05:03:41.686Z,54
2023-03-17T05:08:47.722Z,53.5
2023-03-17T05:13:53.890Z,53
2023-03-17T05:18:59.943Z,53.5
2023-03-17T05:24:06.173Z,53.5
2023-03-17T05:29:12.103Z,52
2023-03-17T05:34:18.261Z,53.5
2023-03-17T05:39:25.479Z,52.5
2023-03-17T05:44:30.436Z,54
2023-03-17T05:49:36.524Z,52
2023-03-17T05:54:43.225Z,51.5
2023-03-17T05:59:48.946Z,50
2023-03-17T06:04:54.857Z,50
2023-03-17T06:10:06.508Z,48.5
2023-03-17T06:15:18.312Z,49.5
2023-03-17T06:20:24.389Z,48.5
2023-03-17T06:25:30.854Z,47.5
2023-03-17T06:30:38.775Z,51
2023-03-17T06:35:42.772Z,52.5
2023-03-17T06:40:48.718Z,49.5
2023-03-17T06:45:54.855Z,46
2023-03-17T06:51:00.940Z,42.5
2023-03-17T06:56:08.281Z,39.5
2023-03-17T07:01:13.271Z,36.5
2023-03-17T07:06:19.351Z,41
2023-03-17T07:11:25.265Z,37.5
2023-03-17T07:16:31.451Z,30
2023-03-17T07:21:37.499Z,28.5
2023-03-17T07:26:43.677Z,29.5
2023-03-17T07:31:49.725Z,30.5
2023-03-17T07:36:55.815Z,28
2023-03-17T07:42:01.837Z,30.5
2023-03-17T07:47:08.012Z,29.5
2023-03-17T07:52:14.096Z,28.5
2023-03-17T07:57:25.852Z,30
2023-03-17T08:02:32.044Z,27
2023-03-17T08:07:38.046Z,28.5
2023-03-17T08:12:44.090Z,31.5
2023-03-17T08:17:50.319Z,33
2023-03-17T08:22:56.297Z,35.5
2023-03-17T08:28:02.349Z,38.5
2023-03-17T08:33:08.532Z,38.5
2023-03-17T08:38:14.578Z,40.5
2023-03-17T08:43:20.605Z,41
2023-03-17T08:48:26.745Z,38.5
2023-03-17T08:53:32.833Z,40.5
2023-03-17T08:58:38.943Z,45
2023-03-17T09:03:44.999Z,44
2023-03-17T09:13:57.227Z,39
2023-03-17T09:19:03.452Z,40.5
2023-03-17T09:24:09.376Z,42
2023-03-17T09:29:15.473Z,43.5
2023-03-17T09:34:21.547Z,42.5
2023-03-17T09:39:27.838Z,45
2023-03-17T09:44:39.429Z,40.5
2023-03-17T09:49:45.506Z,42
2023-03-17T09:54:57.203Z,44.5
2023-03-17T10:00:03.393Z,39
2023-03-17T10:05:09.452Z,40.5
2023-03-17T10:10:15.718Z,40
2023-03-17T10:15:21.634Z,40
2023-03-17T10:20:27.656Z,43
2023-03-17T10:25:34.989Z,39.5
2023-03-17T10:30:39.924Z,42.5
2023-03-17T10:35:46.027Z,42
2023-03-17T10:40:52.119Z,40
2023-03-17T10:45:58.209Z,43
2023-03-17T10:51:04.270Z,41.5
2023-03-17T10:56:10.372Z,40.5
2023-03-17T11:01:16.548Z,43
2023-03-17T11:06:22.555Z,40.5
2023-03-17T11:11:28.754Z,37.5
2023-03-17T11:16:34.828Z,42
2023-03-17T11:21:40.837Z,41
2023-03-17T11:26:46.920Z,39
2023-03-17T11:37:00.121Z,36
2023-03-17T11:42:10.921Z,36.5
2023-03-17T11:47:22.580Z,37
2023-03-17T11:52:34.333Z,36.5
2023-03-17T11:57:40.410Z,37.5
2023-03-17T12:02:46.495Z,38
2023-03-17T12:07:52.769Z,37.5
2023-03-17T12:13:04.370Z,36.5
2023-03-17T12:18:10.428Z,36.5
2023-03-17T12:23:16.577Z,37.5
2023-03-17T12:28:22.607Z,40.5
2023-03-17T12:33:28.746Z,41
2023-03-17T12:38:34.854Z,35
2023-03-17T12:43:40.952Z,36.5
2023-03-17T12:48:47.024Z,35
2023-03-17T12:53:53.105Z,38
2023-03-17T12:58:59.220Z,36.5
2023-03-17T13:04:05.283Z,40
2023-03-17T13:09:11.420Z,38
2023-03-17T13:14:18.501Z,40.5
2023-03-17T13:19:23.586Z,40
2023-03-17T13:24:29.665Z,34
2023-03-17T13:29:41.400Z,35
2023-03-17T13:34:47.482Z,34
2023-03-17T13:39:59.241Z,36
2023-03-17T13:45:05.354Z,37
2023-03-17T13:50:11.404Z,37.5
2023-03-17T13:55:17.548Z,39
2023-03-17T14:00:23.726Z,36.5
2023-03-17T14:05:29.846Z,35.5
2023-03-17T14:10:36.353Z,32
2023-03-17T14:15:41.869Z,34.5
2023-03-17T14:20:48.066Z,37
2023-03-17T14:25:54.077Z,37.5
2023-03-17T14:31:00.218Z,36.5
2023-03-17T14:36:06.333Z,37.5
2023-03-17T14:41:12.454Z,35.5
2023-03-17T14:46:18.445Z,36
2023-03-17T14:51:24.527Z,40
2023-03-17T14:56:30.655Z,42.5
2023-03-17T15:01:36.794Z,44
2023-03-17T15:06:42.897Z,44
2023-03-17T15:11:48.973Z,45
2023-03-17T15:16:55.178Z,45
2023-03-17T15:22:06.874Z,44.5
2023-03-17T15:27:12.884Z,45.5
2023-03-17T15:37:25.058Z,41
2023-03-17T15:42:31.311Z,41.5
2023-03-17T15:47:37.233Z,42.5
2023-03-17T15:52:43.325Z,39
2023-03-17T15:57:56.680Z,40.5
2023-03-17T16:02:55.498Z,41.5
2023-03-17T16:08:01.619Z,44
2023-03-17T16:13:07.703Z,42.5
2023-03-17T16:18:13.756Z,44.5
2023-03-17T16:23:19.865Z,48
2023-03-17T16:28:26.111Z,51.5
2023-03-17T16:33:32.051Z,49
2023-03-17T16:38:38.218Z,46
2023-03-17T16:43:44.294Z,51.5
2023-03-17T16:48:50.378Z,51.5
2023-03-17T16:53:56.441Z,50
2023-03-17T16:59:02.557Z,51.5
2023-03-17T17:04:08.659Z,50.5
2023-03-17T17:09:20.387Z,54
2023-03-17T17:14:32.180Z,53.5
2023-03-17T17:19:38.187Z,53
2023-03-17T17:24:44.272Z,53
2023-03-17T17:29:50.419Z,52.5
2023-03-17T17:34:56.492Z,53.5
2023-03-17T17:40:02.581Z,55
2023-03-17T17:45:08.861Z,54.5
2023-03-17T17:50:14.748Z,57
2023-03-17T17:55:20.970Z,57
2023-03-17T18:00:26.959Z,54.5
2023-03-17T18:05:33.215Z,58
2023-03-17T18:10:39.153Z,56.5
2023-03-17T18:15:45.306Z,57.5
2023-03-17T18:20:51.317Z,56.5
2023-03-17T18:25:57.491Z,58.5
2023-03-17T18:31:03.579Z,57.5
2023-03-17T18:36:09.619Z,58
2023-03-17T18:41:15.698Z,59.5
2023-03-17T18:46:21.907Z,59
2023-03-17T18:51:27.872Z,59
2023-03-17T18:56:39.604Z,60.5
2023-03-17T19:01:51.371Z,61.5
2023-03-17T19:07:03.054Z,60
2023-03-17T19:12:09.174Z,60.5
2023-03-17T19:17:15.292Z,60.5
2023-03-17T19:22:21.429Z,59
2023-03-17T19:27:27.463Z,58.5
2023-03-17T19:32:33.607Z,59.5
2023-03-17T19:37:39.649Z,61
2023-03-17T19:42:45.726Z,61.5
2023-03-17T19:52:57.953Z,61.5
2023-03-17T19:58:04.053Z,63
2023-03-17T20:03:10.222Z,63
2023-03-17T20:08:16.343Z,60.5
2023-03-17T20:13:22.289Z,63
2023-03-17T20:18:28.399Z,64.5
2023-03-17T20:23:34.498Z,63
2023-03-17T20:28:40.567Z,63.5
2023-03-17T20:33:46.669Z,63.5
2023-03-17T20:38:52.959Z,63.5
2023-03-17T20:43:58.873Z,64.5
2023-03-17T20:49:05.035Z,63.5
2023-03-17T20:54:16.715Z,64.5
2023-03-17T21:00:03.270Z,65
2023-03-17T21:04:40.108Z,64.5
2023-03-17T21:09:40.720Z,64.5
2023-03-17T21:19:52.833Z,66
2023-03-17T21:24:58.888Z,65.5
2023-03-17T21:30:04.982Z,66
2023-03-17T21:35:11.045Z,65
2023-03-17T21:40:17.218Z,65
2023-03-17T21:45:23.271Z,65.5
2023-03-17T21:50:29.369Z,66.5
2023-03-17T21:55:35.529Z,66
2023-03-17T22:00:45.404Z,65
2023-03-17T22:05:47.642Z,65
2023-03-17T22:10:53.813Z,65
2023-03-17T22:15:59.822Z,64
2023-03-17T22:26:12.121Z,66.5
2023-03-17T22:31:23.816Z,66.5
2023-03-17T22:36:36.431Z,66.5
2023-03-17T22:41:49.092Z,66
2023-03-17T22:47:01.785Z,66.5
2023-03-17T22:52:14.455Z,63
2023-03-17T22:57:32.773Z,64
2023-03-17T23:02:38.837Z,65
2023-03-17T23:07:50.579Z,65
2023-03-17T23:12:51.216Z,64.5
2023-03-17T23:17:57.101Z,65.5
2023-03-17T23:23:03.248Z,66
2023-03-17T23:28:09.300Z,64.5
2023-03-17T23:33:15.363Z,63
2023-03-17T23:38:21.571Z,67
2023-03-17T23:43:27.575Z,67
2023-03-17T23:48:33.675Z,68.5
2023-03-17T23:53:39.721Z,68
2023-03-17T23:58:45.947Z,66.5
